sensor_id;sensor_type;location;lat;lon;timestamp;temperature;humidity
72650;SHT31;61467;50.674;4.618;2023-03-16T00:00:08;7.32;62.96
72650;SHT31;61467;50.674;4.618;2023-03-16T00:02:38;7.36;63.05
72650;SHT31;61467;50.674;4.618;2023-03-16T00:05:07;7.43;63.00
72650;SHT31;61467;50.674;4.618;2023-03-16T00:07:34;7.40;63.10
72650;SHT31;61467;50.674;4.618;2023-03-16T00:10:02;7.40;63.04
72650;SHT31;61467;50.674;4.618;2023-03-16T00:12:29;7.43;63.00
72650;SHT31;61467;50.674;4.618;2023-03-16T00:15:00;7.44;63.03
72650;SHT31;61467;50.674;4.618;2023-03-16T00:17:29;7.44;63.04
72650;SHT31;61467;50.674;4.618;2023-03-16T00:19:56;7.40;63.23
72650;SHT31;61467;50.674;4.618;2023-03-16T00:22:24;7.22;63.55
72650;SHT31;61467;50.674;4.618;2023-03-16T00:24:52;7.32;63.54
72650;SHT31;61467;50.674;4.618;2023-03-16T00:27:21;7.36;63.45
72650;SHT31;61467;50.674;4.618;2023-03-16T00:29:49;7.34;63.76
72650;SHT31;61467;50.674;4.618;2023-03-16T00:32:24;7.32;63.99
72650;SHT31;61467;50.674;4.618;2023-03-16T00:34:51;7.36;63.69
72650;SHT31;61467;50.674;4.618;2023-03-16T00:37:18;7.49;63.22
72650;SHT31;61467;50.674;4.618;2023-03-16T00:39:48;7.52;63.34
72650;SHT31;61467;50.674;4.618;2023-03-16T00:42:16;7.44;63.31
72650;SHT31;61467;50.674;4.618;2023-03-16T00:44:43;7.59;63.04
72650;SHT31;61467;50.674;4.618;2023-03-16T00:47:11;7.56;63.49
72650;SHT31;61467;50.674;4.618;2023-03-16T00:49:43;7.62;63.10
72650;SHT31;61467;50.674;4.618;2023-03-16T00:52:12;7.63;62.89
72650;SHT31;61467;50.674;4.618;2023-03-16T00:54:40;7.60;63.10
72650;SHT31;61467;50.674;4.618;2023-03-16T00:57:09;7.67;63.09
72650;SHT31;61467;50.674;4.618;2023-03-16T00:59:37;7.44;63.83
72650;SHT31;61467;50.674;4.618;2023-03-16T01:02:05;7.53;63.48
72650;SHT31;61467;50.674;4.618;2023-03-16T01:04:32;7.46;63.84
72650;SHT31;61467;50.674;4.618;2023-03-16T01:07:01;7.29;64.68
72650;SHT31;61467;50.674;4.618;2023-03-16T01:09:28;7.53;63.71
72650;SHT31;61467;50.674;4.618;2023-03-16T01:11:55;7.53;63.75
72650;SHT31;61467;50.674;4.618;2023-03-16T01:14:22;7.52;63.92
72650;SHT31;61467;50.674;4.618;2023-03-16T01:16:49;7.60;63.67
72650;SHT31;61467;50.674;4.618;2023-03-16T01:19:16;7.60;63.92
72650;SHT31;61467;50.674;4.618;2023-03-16T01:21:43;7.52;64.39
72650;SHT31;61467;50.674;4.618;2023-03-16T01:24:11;7.36;64.63
72650;SHT31;61467;50.674;4.618;2023-03-16T01:26:38;7.46;64.35
72650;SHT31;61467;50.674;4.618;2023-03-16T01:29:05;7.33;64.50
72650;SHT31;61467;50.674;4.618;2023-03-16T01:31:32;7.49;64.64
72650;SHT31;61467;50.674;4.618;2023-03-16T01:33:59;7.44;64.49
72650;SHT31;61467;50.674;4.618;2023-03-16T01:36:29;7.54;64.60
72650;SHT31;61467;50.674;4.618;2023-03-16T01:38:57;7.57;64.55
72650;SHT31;61467;50.674;4.618;2023-03-16T01:41:25;7.56;64.74
72650;SHT31;61467;50.674;4.618;2023-03-16T01:43:52;7.50;64.99
72650;SHT31;61467;50.674;4.618;2023-03-16T01:46:25;7.62;64.81
72650;SHT31;61467;50.674;4.618;2023-03-16T01:49:01;7.62;64.46
72650;SHT31;61467;50.674;4.618;2023-03-16T01:51:33;7.46;64.85
72650;SHT31;61467;50.674;4.618;2023-03-16T01:54:03;7.54;64.91
72650;SHT31;61467;50.674;4.618;2023-03-16T01:56:37;7.64;64.67
72650;SHT31;61467;50.674;4.618;2023-03-16T01:59:08;7.52;65.27
72650;SHT31;61467;50.674;4.618;2023-03-16T02:01:36;7.59;64.88
72650;SHT31;61467;50.674;4.618;2023-03-16T02:04:10;7.66;64.52
72650;SHT31;61467;50.674;4.618;2023-03-16T02:06:38;7.64;64.54
72650;SHT31;61467;50.674;4.618;2023-03-16T02:09:05;7.69;64.50
72650;SHT31;61467;50.674;4.618;2023-03-16T02:11:34;7.71;64.54
72650;SHT31;61467;50.674;4.618;2023-03-16T02:14:05;7.57;65.01
72650;SHT31;61467;50.674;4.618;2023-03-16T02:16:33;7.66;64.88
72650;SHT31;61467;50.674;4.618;2023-03-16T02:19:00;7.71;65.01
72650;SHT31;61467;50.674;4.618;2023-03-16T02:21:32;7.62;65.25
72650;SHT31;61467;50.674;4.618;2023-03-16T02:24:01;7.52;65.55
72650;SHT31;61467;50.674;4.618;2023-03-16T02:26:35;7.59;65.33
72650;SHT31;61467;50.674;4.618;2023-03-16T02:29:16;7.60;65.39
72650;SHT31;61467;50.674;4.618;2023-03-16T02:31:47;7.56;65.67
72650;SHT31;61467;50.674;4.618;2023-03-16T02:34:16;7.53;65.71
72650;SHT31;61467;50.674;4.618;2023-03-16T02:36:44;7.50;65.86
72650;SHT31;61467;50.674;4.618;2023-03-16T02:39:12;7.52;65.97
72650;SHT31;61467;50.674;4.618;2023-03-16T02:41:39;7.47;66.13
72650;SHT31;61467;50.674;4.618;2023-03-16T02:44:10;7.53;65.88
72650;SHT31;61467;50.674;4.618;2023-03-16T02:46:41;7.47;65.61
72650;SHT31;61467;50.674;4.618;2023-03-16T02:49:14;7.40;66.20
72650;SHT31;61467;50.674;4.618;2023-03-16T02:51:43;7.53;65.79
72650;SHT31;61467;50.674;4.618;2023-03-16T02:54:10;7.40;66.32
72650;SHT31;61467;50.674;4.618;2023-03-16T02:56:37;7.53;66.01
72650;SHT31;61467;50.674;4.618;2023-03-16T02:59:05;7.60;65.75
72650;SHT31;61467;50.674;4.618;2023-03-16T03:01:32;7.60;65.14
72650;SHT31;61467;50.674;4.618;2023-03-16T03:04:01;7.62;65.18
72650;SHT31;61467;50.674;4.618;2023-03-16T03:06:29;7.60;65.35
72650;SHT31;61467;50.674;4.618;2023-03-16T03:08:56;7.60;65.37
72650;SHT31;61467;50.674;4.618;2023-03-16T03:11:23;7.57;65.42
72650;SHT31;61467;50.674;4.618;2023-03-16T03:13:50;7.54;65.87
72650;SHT31;61467;50.674;4.618;2023-03-16T03:16:17;7.57;65.82
72650;SHT31;61467;50.674;4.618;2023-03-16T03:18:44;7.52;66.22
72650;SHT31;61467;50.674;4.618;2023-03-16T03:21:12;7.52;66.25
72650;SHT31;61467;50.674;4.618;2023-03-16T03:23:40;7.52;66.02
72650;SHT31;61467;50.674;4.618;2023-03-16T03:26:11;7.56;66.06
72650;SHT31;61467;50.674;4.618;2023-03-16T03:28:39;7.43;66.20
72650;SHT31;61467;50.674;4.618;2023-03-16T03:31:06;7.50;65.85
72650;SHT31;61467;50.674;4.618;2023-03-16T03:33:33;7.36;66.42
72650;SHT31;61467;50.674;4.618;2023-03-16T03:35:59;7.44;66.29
72650;SHT31;61467;50.674;4.618;2023-03-16T03:38:26;7.36;66.26
72650;SHT31;61467;50.674;4.618;2023-03-16T03:40:54;7.44;65.92
72650;SHT31;61467;50.674;4.618;2023-03-16T03:43:24;7.37;65.93
72650;SHT31;61467;50.674;4.618;2023-03-16T03:45:54;7.46;65.80
72650;SHT31;61467;50.674;4.618;2023-03-16T03:48:22;7.46;65.61
72650;SHT31;61467;50.674;4.618;2023-03-16T03:50:49;7.39;65.67
72650;SHT31;61467;50.674;4.618;2023-03-16T03:53:16;7.40;65.64
72650;SHT31;61467;50.674;4.618;2023-03-16T03:55:43;7.34;65.87
72650;SHT31;61467;50.674;4.618;2023-03-16T03:58:11;7.33;65.52
72650;SHT31;61467;50.674;4.618;2023-03-16T04:00:38;7.43;65.27
72650;SHT31;61467;50.674;4.618;2023-03-16T04:03:05;7.47;65.12
72650;SHT31;61467;50.674;4.618;2023-03-16T04:05:32;7.40;65.14
72650;SHT31;61467;50.674;4.618;2023-03-16T04:07:59;7.46;65.29
72650;SHT31;61467;50.674;4.618;2023-03-16T04:10:27;7.39;65.20
72650;SHT31;61467;50.674;4.618;2023-03-16T04:12:56;7.33;65.31
72650;SHT31;61467;50.674;4.618;2023-03-16T04:15:24;7.36;65.22
72650;SHT31;61467;50.674;4.618;2023-03-16T04:17:59;7.42;65.48
72650;SHT31;61467;50.674;4.618;2023-03-16T04:20:26;7.44;65.26
72650;SHT31;61467;50.674;4.618;2023-03-16T04:22:53;7.46;65.34
72650;SHT31;61467;50.674;4.618;2023-03-16T04:25:23;7.37;65.16
72650;SHT31;61467;50.674;4.618;2023-03-16T04:27:50;7.39;65.29
72650;SHT31;61467;50.674;4.618;2023-03-16T04:30:18;7.33;65.40
72650;SHT31;61467;50.674;4.618;2023-03-16T04:32:46;7.27;65.93
72650;SHT31;61467;50.674;4.618;2023-03-16T04:35:13;7.19;65.61
72650;SHT31;61467;50.674;4.618;2023-03-16T04:37:41;7.33;65.85
72650;SHT31;61467;50.674;4.618;2023-03-16T04:40:09;7.12;66.04
72650;SHT31;61467;50.674;4.618;2023-03-16T04:42:41;7.33;65.79
72650;SHT31;61467;50.674;4.618;2023-03-16T04:45:09;7.33;66.12
72650;SHT31;61467;50.674;4.618;2023-03-16T04:47:36;7.34;66.07
72650;SHT31;61467;50.674;4.618;2023-03-16T04:50:05;7.30;66.21
72650;SHT31;61467;50.674;4.618;2023-03-16T04:52:32;7.30;66.72
72650;SHT31;61467;50.674;4.618;2023-03-16T04:54:59;7.32;66.60
72650;SHT31;61467;50.674;4.618;2023-03-16T04:57:26;7.36;66.85
72650;SHT31;61467;50.674;4.618;2023-03-16T04:59:53;7.33;67.58
72650;SHT31;61467;50.674;4.618;2023-03-16T05:02:20;7.33;66.72
72650;SHT31;61467;50.674;4.618;2023-03-16T05:04:48;7.30;66.72
72650;SHT31;61467;50.674;4.618;2023-03-16T05:07:17;7.32;67.10
72650;SHT31;61467;50.674;4.618;2023-03-16T05:09:44;7.39;66.82
72650;SHT31;61467;50.674;4.618;2023-03-16T05:12:11;7.33;66.69
72650;SHT31;61467;50.674;4.618;2023-03-16T05:14:38;7.27;67.12
72650;SHT31;61467;50.674;4.618;2023-03-16T05:17:04;7.23;66.76
72650;SHT31;61467;50.674;4.618;2023-03-16T05:19:31;7.29;66.49
72650;SHT31;61467;50.674;4.618;2023-03-16T05:21:58;7.23;66.18
72650;SHT31;61467;50.674;4.618;2023-03-16T05:24:27;7.22;66.97
72650;SHT31;61467;50.674;4.618;2023-03-16T05:26:54;7.16;66.08
72650;SHT31;61467;50.674;4.618;2023-03-16T05:29:22;7.23;66.00
72650;SHT31;61467;50.674;4.618;2023-03-16T05:31:49;7.27;66.06
72650;SHT31;61467;50.674;4.618;2023-03-16T05:34:16;7.32;65.88
72650;SHT31;61467;50.674;4.618;2023-03-16T05:36:43;7.32;66.41
72650;SHT31;61467;50.674;4.618;2023-03-16T05:39:10;7.27;66.01
72650;SHT31;61467;50.674;4.618;2023-03-16T05:41:39;7.05;66.59
72650;SHT31;61467;50.674;4.618;2023-03-16T05:44:06;7.26;65.70
72650;SHT31;61467;50.674;4.618;2023-03-16T05:46:34;7.30;65.69
72650;SHT31;61467;50.674;4.618;2023-03-16T05:49:01;7.26;66.04
72650;SHT31;61467;50.674;4.618;2023-03-16T05:51:28;7.34;65.77
72650;SHT31;61467;50.674;4.618;2023-03-16T05:53:54;7.29;65.63
72650;SHT31;61467;50.674;4.618;2023-03-16T05:56:22;7.27;65.27
72650;SHT31;61467;50.674;4.618;2023-03-16T05:58:52;7.33;65.42
72650;SHT31;61467;50.674;4.618;2023-03-16T06:01:20;7.25;65.54
72650;SHT31;61467;50.674;4.618;2023-03-16T06:03:47;7.23;65.28
72650;SHT31;61467;50.674;4.618;2023-03-16T06:06:15;7.29;64.96
72650;SHT31;61467;50.674;4.618;2023-03-16T06:08:42;7.12;66.02
72650;SHT31;61467;50.674;4.618;2023-03-16T06:11:09;7.27;65.61
72650;SHT31;61467;50.674;4.618;2023-03-16T06:13:36;7.26;65.62
72650;SHT31;61467;50.674;4.618;2023-03-16T06:16:05;7.33;65.01
72650;SHT31;61467;50.674;4.618;2023-03-16T06:18:32;7.33;65.11
72650;SHT31;61467;50.674;4.618;2023-03-16T06:20:59;7.34;64.65
72650;SHT31;61467;50.674;4.618;2023-03-16T06:23:26;7.22;65.32
72650;SHT31;61467;50.674;4.618;2023-03-16T06:25:53;7.25;65.04
72650;SHT31;61467;50.674;4.618;2023-03-16T06:28:20;7.34;64.63
72650;SHT31;61467;50.674;4.618;2023-03-16T06:30:47;7.33;64.64
72650;SHT31;61467;50.674;4.618;2023-03-16T06:33:16;7.40;64.30
72650;SHT31;61467;50.674;4.618;2023-03-16T06:35:42;7.49;64.06
72650;SHT31;61467;50.674;4.618;2023-03-16T06:38:09;7.46;63.84
72650;SHT31;61467;50.674;4.618;2023-03-16T06:40:36;7.44;63.94
72650;SHT31;61467;50.674;4.618;2023-03-16T06:43:03;7.54;63.96
72650;SHT31;61467;50.674;4.618;2023-03-16T06:45:30;7.57;63.95
72650;SHT31;61467;50.674;4.618;2023-03-16T06:47:57;7.49;64.08
72650;SHT31;61467;50.674;4.618;2023-03-16T06:50:25;7.44;63.97
72650;SHT31;61467;50.674;4.618;2023-03-16T06:52:52;7.29;64.31
72650;SHT31;61467;50.674;4.618;2023-03-16T06:55:19;7.43;64.30
72650;SHT31;61467;50.674;4.618;2023-03-16T06:57:46;7.34;64.30
72650;SHT31;61467;50.674;4.618;2023-03-16T07:00:14;7.32;64.43
72650;SHT31;61467;50.674;4.618;2023-03-16T07:02:41;7.43;64.30
72650;SHT31;61467;50.674;4.618;2023-03-16T07:05:09;7.49;63.77
72650;SHT31;61467;50.674;4.618;2023-03-16T07:07:39;7.52;63.36
72650;SHT31;61467;50.674;4.618;2023-03-16T07:10:09;7.50;63.62
72650;SHT31;61467;50.674;4.618;2023-03-16T07:12:36;7.59;63.56
72650;SHT31;61467;50.674;4.618;2023-03-16T07:15:03;7.49;63.37
72650;SHT31;61467;50.674;4.618;2023-03-16T07:17:30;7.40;64.13
72650;SHT31;61467;50.674;4.618;2023-03-16T07:19:57;7.57;63.34
72650;SHT31;61467;50.674;4.618;2023-03-16T07:22:24;7.53;63.73
72650;SHT31;61467;50.674;4.618;2023-03-16T07:24:52;7.50;63.43
72650;SHT31;61467;50.674;4.618;2023-03-16T07:27:22;7.66;62.86
72650;SHT31;61467;50.674;4.618;2023-03-16T07:29:48;7.60;62.86
72650;SHT31;61467;50.674;4.618;2023-03-16T07:32:16;7.62;63.26
72650;SHT31;61467;50.674;4.618;2023-03-16T07:34:44;7.77;62.39
72650;SHT31;61467;50.674;4.618;2023-03-16T07:37:11;7.70;62.58
72650;SHT31;61467;50.674;4.618;2023-03-16T07:39:38;7.77;62.69
72650;SHT31;61467;50.674;4.618;2023-03-16T07:42:06;7.75;62.61
72650;SHT31;61467;50.674;4.618;2023-03-16T07:44:33;7.93;62.54
72650;SHT31;61467;50.674;4.618;2023-03-16T07:47:00;8.04;61.93
72650;SHT31;61467;50.674;4.618;2023-03-16T07:49:27;8.22;61.45
72650;SHT31;61467;50.674;4.618;2023-03-16T07:51:54;8.09;61.90
72650;SHT31;61467;50.674;4.618;2023-03-16T07:54:21;8.14;61.05
72650;SHT31;61467;50.674;4.618;2023-03-16T07:56:48;8.38;60.94
72650;SHT31;61467;50.674;4.618;2023-03-16T07:59:17;8.39;60.63
72650;SHT31;61467;50.674;4.618;2023-03-16T08:01:45;8.39;60.82
72650;SHT31;61467;50.674;4.618;2023-03-16T08:04:12;8.57;60.19
72650;SHT31;61467;50.674;4.618;2023-03-16T08:06:39;8.49;60.23
72650;SHT31;61467;50.674;4.618;2023-03-16T08:09:06;8.38;59.96
72650;SHT31;61467;50.674;4.618;2023-03-16T08:11:33;8.35;60.12
72650;SHT31;61467;50.674;4.618;2023-03-16T08:14:00;8.50;59.46
72650;SHT31;61467;50.674;4.618;2023-03-16T08:16:30;8.52;59.53
72650;SHT31;61467;50.674;4.618;2023-03-16T08:18:57;8.66;59.37
72650;SHT31;61467;50.674;4.618;2023-03-16T08:21:26;8.80;59.26
72650;SHT31;61467;50.674;4.618;2023-03-16T08:23:54;8.99;59.26
72650;SHT31;61467;50.674;4.618;2023-03-16T08:26:22;8.97;58.68
72650;SHT31;61467;50.674;4.618;2023-03-16T08:28:50;8.91;58.75
72650;SHT31;61467;50.674;4.618;2023-03-16T08:31:18;9.03;57.35
72650;SHT31;61467;50.674;4.618;2023-03-16T08:33:47;9.38;56.73
72650;SHT31;61467;50.674;4.618;2023-03-16T08:36:15;9.39;55.79
72650;SHT31;61467;50.674;4.618;2023-03-16T08:38:42;9.27;55.88
72650;SHT31;61467;50.674;4.618;2023-03-16T08:41:10;9.38;56.55
72650;SHT31;61467;50.674;4.618;2023-03-16T08:43:38;9.38;55.73
72650;SHT31;61467;50.674;4.618;2023-03-16T08:46:05;9.59;54.91
72650;SHT31;61467;50.674;4.618;2023-03-16T08:48:32;9.58;55.25
72650;SHT31;61467;50.674;4.618;2023-03-16T08:51:03;9.86;54.77
72650;SHT31;61467;50.674;4.618;2023-03-16T08:53:30;9.90;53.66
72650;SHT31;61467;50.674;4.618;2023-03-16T08:56:01;9.96;53.57
72650;SHT31;61467;50.674;4.618;2023-03-16T08:58:29;9.97;52.69
72650;SHT31;61467;50.674;4.618;2023-03-16T09:00:57;9.86;53.76
72650;SHT31;61467;50.674;4.618;2023-03-16T09:03:24;10.00;53.13
72650;SHT31;61467;50.674;4.618;2023-03-16T09:05:51;9.99;53.14
72650;SHT31;61467;50.674;4.618;2023-03-16T09:08:20;10.21;52.47
72650;SHT31;61467;50.674;4.618;2023-03-16T09:10:47;10.23;51.60
72650;SHT31;61467;50.674;4.618;2023-03-16T09:13:15;10.10;51.06
72650;SHT31;61467;50.674;4.618;2023-03-16T09:15:41;10.12;52.25
72650;SHT31;61467;50.674;4.618;2023-03-16T09:18:08;10.18;51.08
72650;SHT31;61467;50.674;4.618;2023-03-16T09:20:35;10.40;51.33
72650;SHT31;61467;50.674;4.618;2023-03-16T09:23:02;10.50;50.60
72650;SHT31;61467;50.674;4.618;2023-03-16T09:25:30;10.54;50.97
72650;SHT31;61467;50.674;4.618;2023-03-16T09:27:57;10.58;51.11
72650;SHT31;61467;50.674;4.618;2023-03-16T09:30:25;10.51;50.20
72650;SHT31;61467;50.674;4.618;2023-03-16T09:32:52;10.51;50.17
72650;SHT31;61467;50.674;4.618;2023-03-16T09:35:19;10.64;49.98
72650;SHT31;61467;50.674;4.618;2023-03-16T09:37:46;10.63;50.66
72650;SHT31;61467;50.674;4.618;2023-03-16T09:40:20;10.61;49.98
72650;SHT31;61467;50.674;4.618;2023-03-16T09:42:57;10.63;48.53
72650;SHT31;61467;50.674;4.618;2023-03-16T09:45:35;10.60;48.68
72650;SHT31;61467;50.674;4.618;2023-03-16T09:48:04;10.67;49.03
72650;SHT31;61467;50.674;4.618;2023-03-16T09:50:37;10.98;47.63
72650;SHT31;61467;50.674;4.618;2023-03-16T09:53:09;10.92;49.42
72650;SHT31;61467;50.674;4.618;2023-03-16T09:55:42;10.99;49.79
72650;SHT31;61467;50.674;4.618;2023-03-16T09:58:16;11.27;47.70
72650;SHT31;61467;50.674;4.618;2023-03-16T10:00:48;11.12;48.32
72650;SHT31;61467;50.674;4.618;2023-03-16T10:03:47;11.27;47.75
72650;SHT31;61467;50.674;4.618;2023-03-16T10:06:21;11.32;48.48
72650;SHT31;61467;50.674;4.618;2023-03-16T10:08:52;11.39;48.57
72650;SHT31;61467;50.674;4.618;2023-03-16T10:11:27;11.57;46.97
72650;SHT31;61467;50.674;4.618;2023-03-16T10:14:01;11.77;46.82
72650;SHT31;61467;50.674;4.618;2023-03-16T10:16:33;11.73;47.27
72650;SHT31;61467;50.674;4.618;2023-03-16T10:19:08;11.94;45.05
72650;SHT31;61467;50.674;4.618;2023-03-16T10:21:38;12.01;46.60
72650;SHT31;61467;50.674;4.618;2023-03-16T10:24:12;12.17;45.60
72650;SHT31;61467;50.674;4.618;2023-03-16T10:26:43;12.25;45.19
72650;SHT31;61467;50.674;4.618;2023-03-16T10:29:15;12.38;45.09
72650;SHT31;61467;50.674;4.618;2023-03-16T10:31:44;12.57;43.40
72650;SHT31;61467;50.674;4.618;2023-03-16T10:34:12;12.66;43.53
72650;SHT31;61467;50.674;4.618;2023-03-16T10:36:41;12.49;45.13
72650;SHT31;61467;50.674;4.618;2023-03-16T10:39:11;12.64;44.15
72650;SHT31;61467;50.674;4.618;2023-03-16T10:41:41;12.62;44.11
72650;SHT31;61467;50.674;4.618;2023-03-16T10:44:10;12.73;44.14
72650;SHT31;61467;50.674;4.618;2023-03-16T10:46:39;12.96;43.99
72650;SHT31;61467;50.674;4.618;2023-03-16T10:49:20;12.97;42.70
72650;SHT31;61467;50.674;4.618;2023-03-16T10:51:47;13.06;43.98
72650;SHT31;61467;50.674;4.618;2023-03-16T10:54:21;13.24;43.00
72650;SHT31;61467;50.674;4.618;2023-03-16T10:56:49;13.30;42.27
72650;SHT31;61467;50.674;4.618;2023-03-16T10:59:26;13.38;42.77
72650;SHT31;61467;50.674;4.618;2023-03-16T11:01:55;13.50;43.45
72650;SHT31;61467;50.674;4.618;2023-03-16T11:04:23;13.55;42.52
72650;SHT31;61467;50.674;4.618;2023-03-16T11:06:53;13.42;43.62
72650;SHT31;61467;50.674;4.618;2023-03-16T11:09:23;13.61;42.20
72650;SHT31;61467;50.674;4.618;2023-03-16T11:11:51;13.58;42.38
72650;SHT31;61467;50.674;4.618;2023-03-16T11:14:20;13.65;42.00
72650;SHT31;61467;50.674;4.618;2023-03-16T11:16:51;13.68;43.21
72650;SHT31;61467;50.674;4.618;2023-03-16T11:19:23;13.76;42.88
72650;SHT31;61467;50.674;4.618;2023-03-16T11:21:56;13.85;42.27
72650;SHT31;61467;50.674;4.618;2023-03-16T11:24:30;14.03;42.84
72650;SHT31;61467;50.674;4.618;2023-03-16T11:27:01;13.89;40.60
72650;SHT31;61467;50.674;4.618;2023-03-16T11:29:40;13.82;42.24
72650;SHT31;61467;50.674;4.618;2023-03-16T11:32:12;14.05;41.71
72650;SHT31;61467;50.674;4.618;2023-03-16T11:34:41;13.96;40.69
72650;SHT31;61467;50.674;4.618;2023-03-16T11:37:15;14.03;40.38
72650;SHT31;61467;50.674;4.618;2023-03-16T11:39:53;14.17;40.57
72650;SHT31;61467;50.674;4.618;2023-03-16T11:42:29;14.23;41.93
72650;SHT31;61467;50.674;4.618;2023-03-16T11:45:07;14.26;41.36
72650;SHT31;61467;50.674;4.618;2023-03-16T11:47:58;14.32;40.73
72650;SHT31;61467;50.674;4.618;2023-03-16T11:50:36;14.16;41.21
72650;SHT31;61467;50.674;4.618;2023-03-16T11:53:14;14.16;41.13
72650;SHT31;61467;50.674;4.618;2023-03-16T11:55:49;14.23;41.05
72650;SHT31;61467;50.674;4.618;2023-03-16T11:58:35;14.29;40.57
72650;SHT31;61467;50.674;4.618;2023-03-16T12:01:11;14.26;41.31
72650;SHT31;61467;50.674;4.618;2023-03-16T12:04:16;14.24;40.83
72650;SHT31;61467;50.674;4.618;2023-03-16T12:07:10;14.29;40.19
72650;SHT31;61467;50.674;4.618;2023-03-16T12:10:04;14.40;40.41
72650;SHT31;61467;50.674;4.618;2023-03-16T12:12:42;14.41;39.41
72650;SHT31;61467;50.674;4.618;2023-03-16T12:15:23;14.41;40.73
72650;SHT31;61467;50.674;4.618;2023-03-16T12:17:55;14.71;39.61
72650;SHT31;61467;50.674;4.618;2023-03-16T12:20:26;14.99;39.05
72650;SHT31;61467;50.674;4.618;2023-03-16T12:23:01;15.18;37.44
72650;SHT31;61467;50.674;4.618;2023-03-16T12:25:33;15.35;37.43
72650;SHT31;61467;50.674;4.618;2023-03-16T12:28:05;15.44;36.00
72650;SHT31;61467;50.674;4.618;2023-03-16T12:30:42;15.54;34.94
72650;SHT31;61467;50.674;4.618;2023-03-16T12:33:18;15.57;34.49
72650;SHT31;61467;50.674;4.618;2023-03-16T12:35:55;15.73;34.85
72650;SHT31;61467;50.674;4.618;2023-03-16T12:38:37;15.87;34.67
72650;SHT31;61467;50.674;4.618;2023-03-16T12:41:15;15.59;34.80
72650;SHT31;61467;50.674;4.618;2023-03-16T12:43:53;15.77;34.50
72650;SHT31;61467;50.674;4.618;2023-03-16T12:46:28;15.67;35.67
72650;SHT31;61467;50.674;4.618;2023-03-16T12:49:00;15.83;34.33
72650;SHT31;61467;50.674;4.618;2023-03-16T12:51:31;15.87;34.97
72650;SHT31;61467;50.674;4.618;2023-03-16T12:54:00;15.97;34.84
72650;SHT31;61467;50.674;4.618;2023-03-16T12:56:30;16.31;34.54
72650;SHT31;61467;50.674;4.618;2023-03-16T12:58:59;16.12;34.59
72650;SHT31;61467;50.674;4.618;2023-03-16T13:01:29;15.94;33.63
72650;SHT31;61467;50.674;4.618;2023-03-16T13:04:01;15.89;33.36
72650;SHT31;61467;50.674;4.618;2023-03-16T13:06:31;16.03;33.74
72650;SHT31;61467;50.674;4.618;2023-03-16T13:09:02;16.14;32.99
72650;SHT31;61467;50.674;4.618;2023-03-16T13:11:40;16.28;32.77
72650;SHT31;61467;50.674;4.618;2023-03-16T13:14:08;16.31;31.87
72650;SHT31;61467;50.674;4.618;2023-03-16T13:16:39;16.21;32.54
72650;SHT31;61467;50.674;4.618;2023-03-16T13:19:22;16.41;31.85
72650;SHT31;61467;50.674;4.618;2023-03-16T13:22:00;16.52;31.66
72650;SHT31;61467;50.674;4.618;2023-03-16T13:24:36;16.45;31.61
72650;SHT31;61467;50.674;4.618;2023-03-16T13:27:16;16.63;31.77
72650;SHT31;61467;50.674;4.618;2023-03-16T13:29:52;16.65;31.14
72650;SHT31;61467;50.674;4.618;2023-03-16T13:32:21;16.76;32.14
72650;SHT31;61467;50.674;4.618;2023-03-16T13:34:49;16.68;32.62
72650;SHT31;61467;50.674;4.618;2023-03-16T13:37:18;16.55;32.94
72650;SHT31;61467;50.674;4.618;2023-03-16T13:39:56;16.93;32.42
72650;SHT31;61467;50.674;4.618;2023-03-16T13:42:27;16.99;31.86
72650;SHT31;61467;50.674;4.618;2023-03-16T13:44:55;16.80;31.89
72650;SHT31;61467;50.674;4.618;2023-03-16T13:47:25;16.89;32.83
72650;SHT31;61467;50.674;4.618;2023-03-16T13:49:55;16.90;32.22
72650;SHT31;61467;50.674;4.618;2023-03-16T13:52:25;16.80;32.34
72650;SHT31;61467;50.674;4.618;2023-03-16T13:54:55;16.62;31.85
72650;SHT31;61467;50.674;4.618;2023-03-16T13:57:24;16.71;32.15
72650;SHT31;61467;50.674;4.618;2023-03-16T13:59:53;16.76;31.28
72650;SHT31;61467;50.674;4.618;2023-03-16T14:02:26;16.96;31.17
72650;SHT31;61467;50.674;4.618;2023-03-16T14:04:53;16.79;31.44
72650;SHT31;61467;50.674;4.618;2023-03-16T14:07:20;16.82;32.28
72650;SHT31;61467;50.674;4.618;2023-03-16T14:09:49;16.86;32.86
72650;SHT31;61467;50.674;4.618;2023-03-16T14:12:18;16.97;33.82
72650;SHT31;61467;50.674;4.618;2023-03-16T14:14:46;17.17;33.51
72650;SHT31;61467;50.674;4.618;2023-03-16T14:17:16;16.87;33.25
72650;SHT31;61467;50.674;4.618;2023-03-16T14:19:45;16.35;31.99
72650;SHT31;61467;50.674;4.618;2023-03-16T14:22:16;16.35;33.13
72650;SHT31;61467;50.674;4.618;2023-03-16T14:24:45;16.28;33.53
72650;SHT31;61467;50.674;4.618;2023-03-16T14:27:24;16.31;33.41
72650;SHT31;61467;50.674;4.618;2023-03-16T14:29:55;16.25;34.44
72650;SHT31;61467;50.674;4.618;2023-03-16T14:32:24;16.35;34.60
72650;SHT31;61467;50.674;4.618;2023-03-16T14:34:59;16.52;35.08
72650;SHT31;61467;50.674;4.618;2023-03-16T14:37:33;16.41;35.47
72650;SHT31;61467;50.674;4.618;2023-03-16T14:40:03;16.38;35.45
72650;SHT31;61467;50.674;4.618;2023-03-16T14:42:33;16.36;35.05
72650;SHT31;61467;50.674;4.618;2023-03-16T14:45:02;16.24;35.58
72650;SHT31;61467;50.674;4.618;2023-03-16T14:47:41;16.25;35.51
72650;SHT31;61467;50.674;4.618;2023-03-16T14:50:12;16.14;35.77
72650;SHT31;61467;50.674;4.618;2023-03-16T14:52:41;15.96;35.25
72650;SHT31;61467;50.674;4.618;2023-03-16T14:55:12;16.07;35.58
72650;SHT31;61467;50.674;4.618;2023-03-16T14:57:41;16.14;35.74
72650;SHT31;61467;50.674;4.618;2023-03-16T15:00:11;16.15;35.92
72650;SHT31;61467;50.674;4.618;2023-03-16T15:02:40;15.93;36.97
72650;SHT31;61467;50.674;4.618;2023-03-16T15:05:18;16.05;36.56
72650;SHT31;61467;50.674;4.618;2023-03-16T15:07:52;15.97;37.36
72650;SHT31;61467;50.674;4.618;2023-03-16T15:10:22;16.12;36.19
72650;SHT31;61467;50.674;4.618;2023-03-16T15:12:52;16.07;36.68
72650;SHT31;61467;50.674;4.618;2023-03-16T15:15:21;16.07;36.65
72650;SHT31;61467;50.674;4.618;2023-03-16T15:17:52;15.94;36.21
72650;SHT31;61467;50.674;4.618;2023-03-16T15:20:20;15.83;36.56
72650;SHT31;61467;50.674;4.618;2023-03-16T15:22:49;15.69;37.58
72650;SHT31;61467;50.674;4.618;2023-03-16T15:25:21;15.56;37.52
72650;SHT31;61467;50.674;4.618;2023-03-16T15:27:50;15.62;36.95
72650;SHT31;61467;50.674;4.618;2023-03-16T15:30:22;15.62;36.43
72650;SHT31;61467;50.674;4.618;2023-03-16T15:32:49;15.47;37.24
72650;SHT31;61467;50.674;4.618;2023-03-16T15:35:17;15.54;36.70
72650;SHT31;61467;50.674;4.618;2023-03-16T15:37:44;15.60;36.68
72650;SHT31;61467;50.674;4.618;2023-03-16T15:40:17;15.53;36.56
72650;SHT31;61467;50.674;4.618;2023-03-16T15:42:45;15.64;38.43
72650;SHT31;61467;50.674;4.618;2023-03-16T15:45:15;15.83;38.22
72650;SHT31;61467;50.674;4.618;2023-03-16T15:47:43;16.12;37.40
72650;SHT31;61467;50.674;4.618;2023-03-16T15:50:11;16.22;39.97
72650;SHT31;61467;50.674;4.618;2023-03-16T15:52:42;16.04;41.45
72650;SHT31;61467;50.674;4.618;2023-03-16T15:55:15;16.15;46.69